Time;durP1;ratioP1;P1;durP2;ratioP2;P2;SDS_P1;SDS_P2;PMS_P1;PMS_P2;Temp;Humidity;BMP_temperature;BMP_pressure;BME280_temperature;BME280_humidity;BME280_pressure;Samples;Min_cycle;Max_cycle;Signal;HPM_P1;HPM_P2
2023/12/03 00:02:11;;;;;;;;;;;;;;;-0.98;100.00;101853.88;5094953;28;19924;-73
2023/12/03 00:04:37;;;;;;;;;;;;;;;-0.94;100.00;101853.22;5111975;27;20010;-74
2023/12/03 00:07:02;;;;;;;;;;;;;;;-0.90;100.00;101844.00;5076321;28;20379;-73
2023/12/03 00:09:28;;;;;;;;;;;;;;;-0.86;100.00;101845.91;5078919;28;20300;-74
2023/12/03 00:11:53;;;;;;;;;;;;;;;-0.84;100.00;101843.41;5106777;28;19926;-73
2023/12/03 00:14:19;;;;;;;;;;;;;;;-0.79;100.00;101844.53;5068426;28;19916;-74
2023/12/03 00:16:46;;;;;;;;;;;;;;;-0.79;100.00;101842.84;5095233;28;20015;-74
2023/12/03 00:19:12;;;;;;;;;;;;;;;-0.76;100.00;101848.16;5079702;28;19920;-73
2023/12/03 00:21:45;;;;;;;;;;;;;;;-0.74;100.00;101843.94;5095447;28;19934;-72
2023/12/03 00:24:10;;;;;;;;;;;;;;;-0.71;100.00;101841.53;5095746;28;19965;-72
2023/12/03 00:26:35;;;;;;;;;;;;;;;-0.66;100.00;101846.03;5071432;28;19923;-73
2023/12/03 00:29:01;;;;;;;;;;;;;;;-0.64;100.00;101836.72;5069685;28;20316;-73
2023/12/03 00:31:28;;;;;;;;;;;;;;;-0.64;100.00;101842.72;5095963;28;19916;-73
2023/12/03 00:33:53;;;;;;;;;;;;;;;-0.59;100.00;101840.38;5075961;28;19920;-72
2023/12/03 00:36:18;;;;;;;;;;;;;;;-0.55;100.00;101837.16;5092220;28;20300;-73
2023/12/03 00:38:44;;;;;;;;;;;;;;;-0.56;100.00;101845.66;5096068;28;19912;-72
2023/12/03 00:41:09;;;;;;;;;;;;;;;-0.54;100.00;101841.50;5074678;28;20010;-72
2023/12/03 00:43:34;;;;;;;;;;;;;;;-0.50;100.00;101850.25;5073822;28;19921;-72
2023/12/03 00:46:02;;;;;;;;;;;;;;;-0.48;100.00;101849.50;5101999;28;19915;-72
2023/12/03 00:48:27;;;;;;;;;;;;;;;-0.45;100.00;101856.50;5075659;28;20014;-72
2023/12/03 00:50:53;;;;;;;;;;;;;;;-0.45;100.00;101847.09;5074279;28;20003;-72
2023/12/03 00:53:18;;;;;;;;;;;;;;;-0.41;100.00;101850.72;5078137;28;19921;-72
2023/12/03 00:55:43;;;;;;;;;;;;;;;-0.39;100.00;101854.22;5077033;28;19981;-72
2023/12/03 00:58:09;;;;;;;;;;;;;;;-0.37;100.00;101853.50;5078146;28;20007;-72
2023/12/03 01:00:34;;;;;;;;;;;;;;;-0.35;100.00;101840.69;5085676;28;19973;-74
2023/12/03 01:03:00;;;;;;;;;;;;;;;-0.32;100.00;101852.84;5077286;28;20381;-74
2023/12/03 01:05:26;;;;;;;;;;;;;;;-0.28;100.00;101847.06;5075004;28;20022;-74
2023/12/03 01:07:52;;;;;;;;;;;;;;;-0.27;100.00;101843.69;5075622;28;20007;-74
2023/12/03 01:10:17;;;;;;;;;;;;;;;-0.24;100.00;101857.56;5073239;28;19924;-73
2023/12/03 01:12:43;;;;;;;;;;;;;;;-0.22;100.00;101850.78;5083784;28;19977;-74
2023/12/03 01:15:08;;;;;;;;;;;;;;;-0.19;100.00;101853.53;5091329;28;19943;-74
2023/12/03 01:17:33;;;;;;;;;;;;;;;-0.17;100.00;101856.19;5067559;28;19920;-73
2023/12/03 01:19:59;;;;;;;;;;;;;;;-0.15;100.00;101856.25;5090193;28;19965;-73
2023/12/03 01:22:24;;;;;;;;;;;;;;;-0.13;100.00;101857.19;5066625;28;19965;-74
2023/12/03 01:24:49;;;;;;;;;;;;;;;-0.12;100.00;101865.00;5089748;28;20022;-74
2023/12/03 01:27:15;;;;;;;;;;;;;;;-0.10;100.00;101868.56;5091072;28;19923;-74
2023/12/03 01:29:41;;;;;;;;;;;;;;;-0.08;100.00;101864.34;5064185;28;20456;-72
2023/12/03 01:32:07;;;;;;;;;;;;;;;-0.08;100.00;101856.63;5090764;28;19995;-73
2023/12/03 01:34:32;;;;;;;;;;;;;;;-0.06;100.00;101864.41;5073567;28;20018;-73
2023/12/03 01:37:08;;;;;;;;;;;;;;;-0.06;100.00;101864.41;5065527;28;19931;-73
2023/12/03 02:55:21;;;;;;;;;;;;;;;-0.58;100.00;101885.91;1489578;26;19963;-73
2023/12/03 02:57:46;;;;;;;;;;;;;;;-0.56;100.00;101889.44;5067178;28;19971;-73
2023/12/03 03:00:12;;;;;;;;;;;;;;;-0.58;100.00;101884.22;5049355;28;19924;-74
2023/12/03 03:02:37;;;;;;;;;;;;;;;-0.58;100.00;101889.38;5057126;28;20439;-73
2023/12/03 03:05:03;;;;;;;;;;;;;;;-0.62;100.00;101882.28;5089718;28;19959;-73
2023/12/03 03:07:29;;;;;;;;;;;;;;;-0.64;100.00;101891.63;5052775;28;19978;-73
2023/12/03 03:09:54;;;;;;;;;;;;;;;-0.64;100.00;101889.06;5053238;28;19955;-73
2023/12/03 03:12:19;;;;;;;;;;;;;;;-0.66;100.00;101884.63;5046248;28;20373;-73
2023/12/03 03:14:45;;;;;;;;;;;;;;;-0.64;100.00;101885.63;5055765;28;19921;-74
2023/12/03 03:17:10;;;;;;;;;;;;;;;-0.59;100.00;101897.00;5051728;28;20369;-74
2023/12/03 03:19:35;;;;;;;;;;;;;;;-0.59;100.00;101887.63;5040484;28;19945;-73
2023/12/03 03:22:00;;;;;;;;;;;;;;;-0.52;100.00;101896.50;5076149;28;19920;-73
2023/12/03 03:24:26;;;;;;;;;;;;;;;-0.50;100.00;101889.78;5060092;28;19923;-73
2023/12/03 03:26:52;;;;;;;;;;;;;;;-0.49;100.00;101893.22;5053905;28;19952;-74
2023/12/03 03:29:17;;;;;;;;;;;;;;;-0.48;100.00;101890.72;5069520;28;19916;-73
2023/12/03 03:31:42;;;;;;;;;;;;;;;-0.49;100.00;101896.66;5076344;28;19919;-73
2023/12/03 03:34:08;;;;;;;;;;;;;;;-0.47;100.00;101896.78;5059779;28;19924;-73
2023/12/03 03:36:35;;;;;;;;;;;;;;;-0.49;100.00;101891.50;5062284;28;19924;-74
2023/12/03 03:39:00;;;;;;;;;;;;;;;-0.52;100.00;101899.09;5072632;28;19921;-73
2023/12/03 03:41:26;;;;;;;;;;;;;;;-0.57;100.00;101900.56;5059103;28;20027;-72
2023/12/03 03:43:51;;;;;;;;;;;;;;;-0.58;100.00;101896.22;5046558;28;19935;-72
2023/12/03 03:46:17;;;;;;;;;;;;;;;-0.63;100.00;101895.09;5058803;28;20343;-73
2023/12/03 03:48:42;;;;;;;;;;;;;;;-0.63;100.00;101893.41;5056115;28;19966;-73
2023/12/03 03:51:07;;;;;;;;;;;;;;;-0.67;100.00;101898.34;5057665;28;19927;-74
2023/12/03 03:53:33;;;;;;;;;;;;;;;-0.71;100.00;101893.00;5048356;28;19995;-74
2023/12/03 03:55:58;;;;;;;;;;;;;;;-0.73;100.00;101897.22;5052027;28;20340;-74
2023/12/03 03:58:23;;;;;;;;;;;;;;;-0.77;100.00;101899.53;5055276;28;20289;-73
2023/12/03 04:00:49;;;;;;;;;;;;;;;-0.80;100.00;101905.41;5055113;28;19920;-73
2023/12/03 04:03:15;;;;;;;;;;;;;;;-0.81;100.00;101911.34;5051011;28;19934;-73
2023/12/03 04:05:48;;;;;;;;;;;;;;;-0.84;100.00;101908.63;5055055;28;19927;-73
2023/12/03 04:08:14;;;;;;;;;;;;;;;-0.89;100.00;101913.53;5069655;28;19933;-73
2023/12/03 04:10:39;;;;;;;;;;;;;;;-0.92;100.00;101912.47;5054649;28;20498;-73
2023/12/03 04:13:05;;;;;;;;;;;;;;;-0.94;100.00;101909.84;5057952;28;19920;-73
2023/12/03 04:15:31;;;;;;;;;;;;;;;-0.95;100.00;101912.34;5054819;28;20460;-73
2023/12/03 04:17:57;;;;;;;;;;;;;;;-1.00;100.00;101919.81;5075322;28;19974;-73
2023/12/03 04:20:22;;;;;;;;;;;;;;;-0.98;100.00;101909.59;5049581;28;19971;-73
2023/12/03 04:22:48;;;;;;;;;;;;;;;-1.13;100.00;101904.53;5072641;28;20006;-72
2023/12/03 04:25:13;;;;;;;;;;;;;;;-1.11;100.00;101908.94;5073556;28;20333;-73
2023/12/03 04:27:39;;;;;;;;;;;;;;;-1.20;100.00;101910.16;5059103;28;20053;-73
2023/12/03 04:30:04;;;;;;;;;;;;;;;-1.25;100.00;101913.38;5073894;28;19924;-73
2023/12/03 04:32:30;;;;;;;;;;;;;;;-1.31;100.00;101913.03;5050516;28;20395;-73
2023/12/03 04:34:55;;;;;;;;;;;;;;;-1.31;100.00;101917.28;5074236;28;20003;-73
2023/12/03 04:37:21;;;;;;;;;;;;;;;-1.37;100.00;101919.53;5058996;28;19924;-72
2023/12/03 04:39:46;;;;;;;;;;;;;;;-1.42;100.00;101922.75;5074839;28;19920;-73
2023/12/03 04:42:11;;;;;;;;;;;;;;;-1.42;100.00;101922.75;5052731;28;19928;-73
2023/12/03 04:44:36;;;;;;;;;;;;;;;-1.45;100.00;101929.38;5058241;28;20006;-72
2023/12/03 04:47:02;;;;;;;;;;;;;;;-1.49;100.00;101928.34;5050500;28;19920;-72
2023/12/03 04:49:27;;;;;;;;;;;;;;;-1.49;100.00;101932.63;5074424;28;19916;-72
2023/12/03 04:51:53;;;;;;;;;;;;;;;-1.53;100.00;101936.69;5071991;28;19978;-72
2023/12/03 04:54:18;;;;;;;;;;;;;;;-1.50;100.00;101934.28;5057417;28;19924;-73
2023/12/03 04:56:43;;;;;;;;;;;;;;;-1.58;100.00;101938.09;5057656;28;20274;-73
2023/12/03 04:59:09;;;;;;;;;;;;;;;-1.54;100.00;101942.63;5091189;28;19981;-72
2023/12/03 05:01:34;;;;;;;;;;;;;;;-1.54;100.00;101931.47;5070666;28;20007;-72
2023/12/03 05:03:59;;;;;;;;;;;;;;;-1.61;100.00;101932.81;5073371;28;19916;-72
2023/12/03 05:06:25;;;;;;;;;;;;;;;-1.56;100.00;101939.09;5057718;28;19932;-73
2023/12/03 05:08:50;;;;;;;;;;;;;;;-1.71;100.00;101945.94;5056128;28;19924;-73
2023/12/03 05:11:16;;;;;;;;;;;;;;;-1.75;100.00;101945.78;5064961;28;20340;-72
2023/12/03 05:13:41;;;;;;;;;;;;;;;-1.79;100.00;101942.97;5044131;28;20301;-72
2023/12/03 05:16:07;;;;;;;;;;;;;;;-1.60;100.00;101944.88;5062969;28;19924;-72
2023/12/03 05:18:33;;;;;;;;;;;;;;;-1.60;100.00;101937.16;5067607;28;19924;-72
2023/12/03 05:20:58;;;;;;;;;;;;;;;-1.85;100.00;101951.22;5066685;28;19931;-72
2023/12/03 05:23:24;;;;;;;;;;;;;;;-1.83;100.00;101952.16;5074125;28;19923;-72
2023/12/03 05:25:49;;;;;;;;;;;;;;;-1.95;100.00;101949.78;5056905;28;20339;-72
2023/12/03 05:28:15;;;;;;;;;;;;;;;-2.03;100.00;101951.03;5069491;28;19923;-72
2023/12/03 05:30:40;;;;;;;;;;;;;;;-2.07;100.00;101953.34;5073031;28;19939;-72
2023/12/03 05:33:06;;;;;;;;;;;;;;;-2.04;100.00;101948.38;5057561;28;20339;-72
2023/12/03 05:35:32;;;;;;;;;;;;;;;-2.25;100.00;101943.78;5057196;28;19920;-73
2023/12/03 05:37:58;;;;;;;;;;;;;;;-2.12;100.00;101953.09;5068980;28;19916;-72
2023/12/03 05:40:24;;;;;;;;;;;;;;;-2.27;100.00;101950.50;5053120;28;19946;-72
2023/12/03 05:42:49;;;;;;;;;;;;;;;-2.32;100.00;101945.09;5072015;28;19916;-73
2023/12/03 05:45:14;;;;;;;;;;;;;;;-2.34;100.00;101949.28;5090149;28;19928;-73
2023/12/03 05:47:40;;;;;;;;;;;;;;;-2.33;100.00;101952.72;5068954;28;19927;-73
2023/12/03 05:50:05;;;;;;;;;;;;;;;-2.38;100.00;101949.88;5064019;28;19920;-72
2023/12/03 05:52:31;;;;;;;;;;;;;;;-2.40;100.00;101948.88;5053226;28;19924;-73
2023/12/03 05:54:56;;;;;;;;;;;;;;;-2.44;100.00;101952.09;5047391;28;20003;-73
2023/12/03 05:57:21;;;;;;;;;;;;;;;-2.36;100.00;101958.53;5068871;28;19928;-73
2023/12/03 05:59:47;;;;;;;;;;;;;;;-2.42;100.00;101957.31;5063667;28;19920;-73
2023/12/03 06:02:13;;;;;;;;;;;;;;;-2.40;100.00;101955.72;5053162;28;20254;-72
2023/12/03 06:04:39;;;;;;;;;;;;;;;-2.48;100.00;101962.97;5057034;28;20392;-72
2023/12/03 06:07:04;;;;;;;;;;;;;;;-2.53;100.00;101970.41;5061624;28;19921;-72
2023/12/03 06:09:30;;;;;;;;;;;;;;;-2.46;100.00;101975.09;5053843;28;20329;-72
2023/12/03 06:11:56;;;;;;;;;;;;;;;-2.51;100.00;101970.50;5088140;28;20349;-72
2023/12/03 06:14:21;;;;;;;;;;;;;;;-2.51;100.00;101970.50;5063125;28;19967;-72
2023/12/03 06:16:47;;;;;;;;;;;;;;;-2.53;100.00;101965.28;5041559;28;19966;-72
2023/12/03 06:19:12;;;;;;;;;;;;;;;-2.49;100.00;101969.75;5080881;28;19958;-72
2023/12/03 06:21:37;;;;;;;;;;;;;;;-2.54;100.00;101978.88;5071861;28;19927;-72
2023/12/03 06:24:03;;;;;;;;;;;;;;;-2.59;100.00;101975.16;5055529;28;20327;-72
2023/12/03 06:26:28;;;;;;;;;;;;;;;-2.60;100.00;101986.22;5053016;28;19924;-72
2023/12/03 06:28:53;;;;;;;;;;;;;;;-2.64;100.00;101986.84;5073215;28;19912;-72
2023/12/03 06:31:18;;;;;;;;;;;;;;;-2.64;100.00;101989.41;5072730;28;19950;-72
2023/12/03 06:33:46;;;;;;;;;;;;;;;-2.59;100.00;101980.28;5053542;28;19920;-72
2023/12/03 06:36:11;;;;;;;;;;;;;;;-2.68;100.00;101980.63;5066434;28;19916;-73
2023/12/03 06:38:37;;;;;;;;;;;;;;;-2.65;100.00;101990.19;5063338;28;19923;-73
2023/12/03 06:41:02;;;;;;;;;;;;;;;-2.63;100.00;101991.16;5057970;28;19947;-72
2023/12/03 06:43:27;;;;;;;;;;;;;;;-2.63;100.00;101991.16;5058334;28;19955;-74
2023/12/03 06:45:53;;;;;;;;;;;;;;;-2.70;100.00;101983.88;5068127;28;19959;-73
2023/12/03 06:48:18;;;;;;;;;;;;;;;-2.62;100.00;101980.97;5068422;28;20369;-72
2023/12/03 06:50:43;;;;;;;;;;;;;;;-2.67;100.00;101973.78;5054644;28;19920;-73
2023/12/03 06:53:08;;;;;;;;;;;;;;;-2.62;100.00;101972.41;5049567;28;19920;-73
2023/12/03 06:55:34;;;;;;;;;;;;;;;-2.54;100.00;101968.63;5069050;28;19924;-73
2023/12/03 06:57:59;;;;;;;;;;;;;;;-2.47;100.00;101965.63;5053590;28;20270;-74
2023/12/03 07:00:24;;;;;;;;;;;;;;;-2.50;100.00;101969.69;5052936;28;20021;-73
2023/12/03 07:02:51;;;;;;;;;;;;;;;-2.47;100.00;101970.75;5036397;28;20044;-73
2023/12/03 07:05:17;;;;;;;;;;;;;;;-2.45;100.00;101965.72;5031158;28;19960;-73
2023/12/03 07:07:43;;;;;;;;;;;;;;;-2.49;100.00;101977.47;5045443;28;20024;-73
2023/12/03 07:10:08;;;;;;;;;;;;;;;-2.48;100.00;101973.25;5018379;28;19948;-72
2023/12/03 07:12:35;;;;;;;;;;;;;;;-2.57;100.00;101978.72;5053001;28;19917;-72
2023/12/03 07:15:00;;;;;;;;;;;;;;;-2.61;100.00;101972.50;5052916;28;20342;-73
2023/12/03 07:17:25;;;;;;;;;;;;;;;-2.54;100.00;101981.47;5036881;28;20019;-72
2023/12/03 07:19:50;;;;;;;;;;;;;;;-2.52;100.00;101977.28;5053252;28;19916;-73
2023/12/03 07:22:17;;;;;;;;;;;;;;;-2.66;100.00;101980.72;5028090;28;20367;-73
2023/12/03 07:24:42;;;;;;;;;;;;;;;-2.58;100.00;101978.63;5030096;28;19975;-73
2023/12/03 07:27:08;;;;;;;;;;;;;;;-2.60;100.00;101986.22;5016913;28;19972;-73
2023/12/03 07:29:33;;;;;;;;;;;;;;;-2.53;100.00;101992.59;5030254;28;19917;-72
2023/12/03 07:31:59;;;;;;;;;;;;;;;-2.59;100.00;101992.25;5040112;28;19929;-73
2023/12/03 07:34:26;;;;;;;;;;;;;;;-2.50;100.00;101992.78;5062493;28;19913;-73
2023/12/03 07:36:51;;;;;;;;;;;;;;;-2.52;100.00;101987.56;5030036;28;20400;-73
2023/12/03 07:39:17;;;;;;;;;;;;;;;-2.53;100.00;101996.06;5054953;28;19913;-73
2023/12/03 07:41:47;;;;;;;;;;;;;;;-2.54;100.00;101991.72;5053094;28;19916;-73
2023/12/03 07:44:14;;;;;;;;;;;;;;;-2.41;100.00;102000.13;5052010;28;20274;-73
2023/12/03 07:46:39;;;;;;;;;;;;;;;-2.40;100.00;102007.06;5045423;28;20378;-73
2023/12/03 07:49:04;;;;;;;;;;;;;;;-2.28;100.00;102003.53;5040462;28;20004;-74
2023/12/03 07:51:30;;;;;;;;;;;;;;;-2.20;100.00;101997.97;5031440;28;19925;-73
2023/12/03 07:53:55;;;;;;;;;;;;;;;-2.31;100.00;102005.94;5031445;28;19972;-73
2023/12/03 07:56:21;;;;;;;;;;;;;;;-2.13;100.00;102003.53;5051511;28;19968;-73
2023/12/03 07:58:46;;;;;;;;;;;;;;;-2.11;100.00;102001.09;5052154;28;19917;-73
2023/12/03 08:01:12;;;;;;;;;;;;;;;-2.20;100.00;102000.53;5044626;28;19925;-73
2023/12/03 08:03:40;;;;;;;;;;;;;;;-1.92;100.00;102003.03;5052343;28;19917;-73
2023/12/03 08:06:06;;;;;;;;;;;;;;;-1.99;100.00;101998.34;5036133;28;19925;-72
2023/12/03 08:08:36;;;;;;;;;;;;;;;-1.98;100.00;102003.56;5034735;28;19929;-73
2023/12/03 08:11:02;;;;;;;;;;;;;;;-1.97;100.00;102014.72;5049042;28;20266;-73
2023/12/03 08:13:28;;;;;;;;;;;;;;;-1.93;100.00;102001.25;5032616;28;19928;-73
2023/12/03 08:15:53;;;;;;;;;;;;;;;-1.73;100.00;102015.25;5050036;28;19929;-73
2023/12/03 08:18:18;;;;;;;;;;;;;;;-1.79;100.00;102009.78;5034102;28;19921;-73
2023/12/03 08:20:46;;;;;;;;;;;;;;;-1.77;100.00;102018.44;5032935;28;20449;-72
2023/12/03 08:23:11;;;;;;;;;;;;;;;-1.77;100.00;102019.34;5049631;28;19928;-73
2023/12/03 08:25:37;;;;;;;;;;;;;;;-1.83;100.00;102018.97;5043880;28;19920;-73
2023/12/03 08:28:05;;;;;;;;;;;;;;;-1.70;100.00;102020.56;5048230;28;20003;-72
2023/12/03 08:30:31;;;;;;;;;;;;;;;-1.45;100.00;102028.00;5039745;28;19976;-72
2023/12/03 08:32:56;;;;;;;;;;;;;;;-0.59;100.00;102028.31;5052026;28;19924;-73
2023/12/03 08:35:21;;;;;;;;;;;;;;;0.42;95.45;102016.25;5039143;28;19920;-71
2023/12/03 08:37:48;;;;;;;;;;;;;;;1.00;90.34;102018.97;5039854;28;20367;-72
2023/12/03 08:40:13;;;;;;;;;;;;;;;1.61;87.06;102024.25;5019511;28;20267;-72
2023/12/03 08:42:41;;;;;;;;;;;;;;;2.14;83.66;102020.53;5027828;28;19928;-72
2023/12/03 08:45:07;;;;;;;;;;;;;;;2.60;82.71;102022.41;5033663;28;19921;-72
2023/12/03 08:47:33;;;;;;;;;;;;;;;2.23;82.87;102020.03;5025158;28;19932;-72
2023/12/03 08:49:58;;;;;;;;;;;;;;;1.57;86.14;102028.44;5028618;28;19925;-73
2023/12/03 08:52:24;;;;;;;;;;;;;;;1.09;88.06;102040.88;5028816;28;19921;-72
2023/12/03 08:54:49;;;;;;;;;;;;;;;0.65;89.09;102038.88;5021524;28;19920;-73
2023/12/03 08:57:15;;;;;;;;;;;;;;;0.40;91.44;102038.47;5033031;28;19935;-73
2023/12/03 08:59:40;;;;;;;;;;;;;;;0.16;92.55;102041.63;5034520;28;20015;-73
2023/12/03 09:02:05;;;;;;;;;;;;;;;0.16;91.76;102034.78;5034600;28;19933;-73
2023/12/03 09:04:31;;;;;;;;;;;;;;;0.17;91.61;102040.78;5051845;28;20305;-73
2023/12/03 09:06:56;;;;;;;;;;;;;;;0.09;91.74;102034.41;5030491;28;19927;-72
2023/12/03 09:09:21;;;;;;;;;;;;;;;-0.06;92.09;102032.81;5030740;28;20007;-74
2023/12/03 09:11:47;;;;;;;;;;;;;;;0.02;92.42;102037.47;5030958;28;20028;-74
2023/12/03 09:14:12;;;;;;;;;;;;;;;0.09;92.67;102042.13;5045223;28;19921;-73
2023/12/03 09:16:37;;;;;;;;;;;;;;;0.25;91.62;102041.19;5033526;28;20388;-74
2023/12/03 09:19:03;;;;;;;;;;;;;;;0.46;90.20;102044.84;5044562;28;19930;-72
2023/12/03 09:21:28;;;;;;;;;;;;;;;1.67;86.53;102052.97;5034527;28;20373;-72
2023/12/03 09:23:54;;;;;;;;;;;;;;;2.86;80.94;102055.31;5049912;28;19936;-73
2023/12/03 09:26:19;;;;;;;;;;;;;;;3.98;77.30;102045.63;5052351;28;19949;-74
2023/12/03 09:28:45;;;;;;;;;;;;;;;4.60;73.91;102048.56;5044749;28;19979;-74
2023/12/03 09:31:10;;;;;;;;;;;;;;;4.67;73.34;102047.06;5050820;28;19982;-74
2023/12/03 09:33:36;;;;;;;;;;;;;;;4.42;73.09;102048.81;5051434;28;19921;-73
2023/12/03 09:36:02;;;;;;;;;;;;;;;4.36;75.99;102043.44;5024990;28;19925;-74
2023/12/03 09:38:27;;;;;;;;;;;;;;;4.09;73.83;102041.66;5044517;28;19925;-72
2023/12/03 09:40:55;;;;;;;;;;;;;;;3.69;74.43;102042.00;5033059;28;19924;-74
2023/12/03 09:43:20;;;;;;;;;;;;;;;3.70;75.25;102049.81;5051014;28;19916;-72
2023/12/03 09:45:46;;;;;;;;;;;;;;;3.77;76.29;102044.03;5048363;28;19921;-73
2023/12/03 09:48:12;;;;;;;;;;;;;;;3.81;74.80;102038.13;5049168;28;20378;-74
2023/12/03 09:50:38;;;;;;;;;;;;;;;4.09;75.29;102039.06;5031817;28;19924;-74
2023/12/03 09:53:05;;;;;;;;;;;;;;;4.11;73.22;102036.56;5050646;28;20447;-73
2023/12/03 09:55:31;;;;;;;;;;;;;;;4.09;72.92;102043.41;5047569;28;19970;-74
2023/12/03 09:57:57;;;;;;;;;;;;;;;4.21;72.41;102040.31;5050194;28;19917;-74
2023/12/03 10:00:22;;;;;;;;;;;;;;;4.32;70.93;102038.97;5048326;28;19924;-74
2023/12/03 10:02:51;;;;;;;;;;;;;;;4.18;70.80;102042.81;5049233;28;20403;-73
2023/12/03 10:05:16;;;;;;;;;;;;;;;3.99;70.26;102039.59;5049137;28;19924;-74
2023/12/03 10:07:45;;;;;;;;;;;;;;;3.79;70.89;102047.59;5033291;28;20329;-74
2023/12/03 10:10:11;;;;;;;;;;;;;;;3.45;72.30;102035.97;5047792;28;19920;-73
2023/12/03 10:12:42;;;;;;;;;;;;;;;3.36;73.74;102043.44;5047746;28;20281;-74
2023/12/03 10:15:08;;;;;;;;;;;;;;;3.16;73.39;102034.91;5026298;28;20239;-73
2023/12/03 10:17:34;;;;;;;;;;;;;;;2.80;73.78;102040.41;5039268;28;19924;-74
2023/12/03 10:20:18;;;;;;;;;;;;;;;2.80;75.27;102030.06;5046192;28;19921;-74
2023/12/03 10:22:44;;;;;;;;;;;;;;;2.91;73.36;102031.34;5047856;28;19999;-73
2023/12/03 10:25:09;;;;;;;;;;;;;;;3.08;72.58;102026.84;5039841;28;19917;-73
2023/12/03 10:27:35;;;;;;;;;;;;;;;3.23;71.94;102026.53;5047069;28;19928;-72
2023/12/03 10:30:01;;;;;;;;;;;;;;;3.35;70.63;102010.56;5049356;28;19925;-73
2023/12/03 10:32:27;;;;;;;;;;;;;;;3.07;71.76;102012.09;5028478;28;19927;-74
2023/12/03 10:34:53;;;;;;;;;;;;;;;2.83;73.64;102016.34;5042614;28;19920;-73
2023/12/03 10:37:19;;;;;;;;;;;;;;;2.58;73.03;102007.63;5048589;28;19917;-74
2023/12/03 10:39:44;;;;;;;;;;;;;;;2.36;74.86;102014.53;5026618;28;20431;-73
2023/12/03 10:42:09;;;;;;;;;;;;;;;2.19;74.69;102002.63;5030612;28;19975;-71
2023/12/03 10:44:37;;;;;;;;;;;;;;;1.90;76.50;101997.13;5046738;28;19917;-73
2023/12/03 10:47:02;;;;;;;;;;;;;;;1.56;77.24;101998.22;5044628;28;19983;-74
2023/12/03 10:49:29;;;;;;;;;;;;;;;1.43;77.82;102003.69;5048935;28;19952;-73
2023/12/03 10:51:55;;;;;;;;;;;;;;;1.54;77.31;101993.00;5039259;28;19928;-74
2023/12/03 10:54:21;;;;;;;;;;;;;;;1.24;79.56;101987.38;5049482;28;19923;-73
2023/12/03 10:56:49;;;;;;;;;;;;;;;1.21;79.18;101990.69;5030403;28;19932;-71
2023/12/03 10:59:19;;;;;;;;;;;;;;;1.07;79.19;101984.03;5023744;28;20298;-73
2023/12/03 11:01:48;;;;;;;;;;;;;;;1.20;78.63;101985.47;5048782;28;20374;-73
2023/12/03 11:04:20;;;;;;;;;;;;;;;0.99;79.75;101988.84;5036735;28;20389;-73
2023/12/03 11:06:48;;;;;;;;;;;;;;;1.11;79.20;101985.06;5050692;28;20293;-71
2023/12/03 11:09:15;;;;;;;;;;;;;;;1.13;78.55;101975.66;5050149;28;19920;-72
2023/12/03 11:11:41;;;;;;;;;;;;;;;1.04;79.00;101978.72;5032647;28;20066;-72
2023/12/03 11:14:06;;;;;;;;;;;;;;;1.27;79.00;101972.00;5046521;28;19962;-73
2023/12/03 11:16:42;;;;;;;;;;;;;;;1.28;79.46;101966.03;5026769;28;20389;-72
2023/12/03 11:19:10;;;;;;;;;;;;;;;1.48;77.36;101963.44;5047355;28;19963;-73
2023/12/03 11:21:56;;;;;;;;;;;;;;;1.53;77.65;101962.81;5045283;28;19932;-73
2023/12/03 11:24:35;;;;;;;;;;;;;;;1.79;77.18;101950.13;5058826;28;19920;-73
2023/12/03 11:27:00;;;;;;;;;;;;;;;1.88;76.38;101949.63;5046851;28;19925;-73
2023/12/03 11:29:44;;;;;;;;;;;;;;;1.97;75.48;101947.44;5029524;28;19942;-73
2023/12/03 11:32:09;;;;;;;;;;;;;;;2.17;76.20;101934.41;5042250;28;19925;-72
2023/12/03 11:34:35;;;;;;;;;;;;;;;2.52;74.61;101942.72;5050883;28;19927;-72
2023/12/03 11:37:01;;;;;;;;;;;;;;;2.93;73.49;101930.44;5032185;28;19929;-73
2023/12/03 11:39:27;;;;;;;;;;;;;;;3.67;71.40;101916.66;5050127;28;19944;-73
2023/12/03 11:42:00;;;;;;;;;;;;;;;4.41;68.31;101913.81;5046975;28;20366;-73
2023/12/03 11:44:28;;;;;;;;;;;;;;;5.29;66.12;101906.84;5050170;28;19938;-73
2023/12/03 11:47:06;;;;;;;;;;;;;;;6.07;64.07;101909.72;5042629;28;19921;-74
2023/12/03 11:49:36;;;;;;;;;;;;;;;6.69;60.79;101911.09;5046719;28;19924;-73
2023/12/03 11:52:01;;;;;;;;;;;;;;;7.49;58.83;101894.44;5046195;28;20035;-74
2023/12/03 11:54:50;;;;;;;;;;;;;;;8.19;56.82;101893.84;5066363;28;20007;-73
2023/12/03 11:57:16;;;;;;;;;;;;;;;8.26;53.99;101903.53;5052465;28;20275;-73
2023/12/03 11:59:46;;;;;;;;;;;;;;;8.65;53.54;101898.88;5049850;28;19924;-75
2023/12/03 12:02:12;;;;;;;;;;;;;;;8.31;52.76;101888.78;5048055;28;19920;-74
2023/12/03 12:04:37;;;;;;;;;;;;;;;7.92;56.23;101883.84;5029648;28;19927;-74
2023/12/03 12:07:12;;;;;;;;;;;;;;;7.82;55.03;101889.78;5031358;28;19920;-75
2023/12/03 12:09:39;;;;;;;;;;;;;;;7.73;54.38;101890.47;5061121;28;19945;-74
2023/12/03 12:12:05;;;;;;;;;;;;;;;7.51;54.35;101891.84;5036665;28;19935;-75
2023/12/03 12:14:31;;;;;;;;;;;;;;;7.56;54.50;101879.78;5042177;28;20577;-76
2023/12/03 12:16:56;;;;;;;;;;;;;;;7.63;53.16;101884.25;5031626;28;19921;-74
2023/12/03 12:19:21;;;;;;;;;;;;;;;6.85;54.28;101892.34;5042276;28;19921;-73
2023/12/03 12:21:51;;;;;;;;;;;;;;;5.85;57.39;101893.56;5031816;28;19935;-74
2023/12/03 12:24:18;;;;;;;;;;;;;;;5.68;57.96;101887.94;5063977;28;19927;-72
2023/12/03 12:26:43;;;;;;;;;;;;;;;5.05;60.30;101880.19;5048089;28;20397;-72
2023/12/03 12:29:09;;;;;;;;;;;;;;;5.32;59.84;101880.94;5047011;28;19921;-74
2023/12/03 12:31:34;;;;;;;;;;;;;;;5.12;60.64;101882.13;5049809;28;19927;-74
2023/12/03 12:34:00;;;;;;;;;;;;;;;4.89;61.75;101878.91;5050042;28;20023;-73
2023/12/03 12:36:25;;;;;;;;;;;;;;;4.92;61.82;101879.84;5027985;28;20360;-74
2023/12/03 12:38:51;;;;;;;;;;;;;;;4.58;61.03;101878.00;5030533;28;20397;-74
2023/12/03 12:41:18;;;;;;;;;;;;;;;4.20;63.23;101885.50;5043501;28;20012;-73
2023/12/03 12:43:57;;;;;;;;;;;;;;;4.09;62.93;101879.97;5049531;28;19963;-73
2023/12/03 12:46:23;;;;;;;;;;;;;;;3.87;63.82;101881.00;5057716;28;19925;-72
2023/12/03 12:48:49;;;;;;;;;;;;;;;3.49;65.58;101878.88;5048229;28;20331;-72
2023/12/03 12:51:24;;;;;;;;;;;;;;;3.37;64.37;101873.28;5044182;28;19924;-73
2023/12/03 12:53:58;;;;;;;;;;;;;;;3.02;67.04;101870.38;5029542;28;20363;-74
2023/12/03 12:56:24;;;;;;;;;;;;;;;2.98;66.92;101864.19;5042381;28;19940;-73
2023/12/03 12:58:49;;;;;;;;;;;;;;;2.77;68.06;101872.03;5039096;28;19920;-74
2023/12/03 13:01:19;;;;;;;;;;;;;;;2.78;68.65;101873.81;5043099;28;19928;-74
2023/12/03 13:03:45;;;;;;;;;;;;;;;2.83;67.78;101863.63;5021183;28;19925;-72
2023/12/03 13:06:10;;;;;;;;;;;;;;;2.69;69.57;101873.47;5026934;28;19921;-74
2023/12/03 13:08:36;;;;;;;;;;;;;;;2.54;68.89;101863.41;5146302;22;19929;-72
2023/12/03 13:11:02;;;;;;;;;;;;;;;2.50;67.99;101862.44;5007355;28;19937;-73
2023/12/03 13:13:27;;;;;;;;;;;;;;;2.35;69.51;101869.59;5012943;28;19926;-72
2023/12/03 13:15:53;;;;;;;;;;;;;;;2.37;69.44;101865.34;5021924;28;19983;-72
2023/12/03 14:15:36;;;;;;;;;;;;;;;1.53;78.07;101854.31;5081994;28;19943;-74
2023/12/03 14:18:02;;;;;;;;;;;;;;;1.46;78.27;101841.09;5070552;28;19920;-75
2023/12/03 14:20:27;;;;;;;;;;;;;;;1.38;78.85;101841.66;5046952;28;19928;-74
2023/12/03 14:22:54;;;;;;;;;;;;;;;1.31;79.05;101842.22;5044596;28;19916;-74
2023/12/03 14:25:19;;;;;;;;;;;;;;;1.28;79.43;101841.19;5053534;28;20698;-74
2023/12/03 14:27:45;;;;;;;;;;;;;;;1.31;78.87;101842.22;5035717;28;19981;-74
2023/12/03 14:30:11;;;;;;;;;;;;;;;1.27;79.55;101835.16;5050672;28;20392;-74
2023/12/03 14:32:37;;;;;;;;;;;;;;;1.42;78.99;101841.78;5056053;28;20390;-74
2023/12/03 14:35:04;;;;;;;;;;;;;;;1.29;79.87;101836.06;5054192;28;19928;-74
2023/12/03 14:37:30;;;;;;;;;;;;;;;1.47;79.57;101837.69;5039085;28;19966;-73
2023/12/03 14:39:55;;;;;;;;;;;;;;;1.40;79.18;101825.34;5042226;28;19931;-74
2023/12/03 14:42:21;;;;;;;;;;;;;;;1.26;80.68;101829.91;5055560;28;19959;-74
2023/12/03 14:44:47;;;;;;;;;;;;;;;1.28;80.33;101817.94;5045074;28;20323;-74